createdAt,value
2023-03-27T00:01:30.489Z,100513.47
2023-03-27T00:05:31.926Z,100517.00
2023-03-27T00:09:33.413Z,100518.38
2023-03-27T00:13:36.379Z,100534.66
2023-03-27T00:17:52.632Z,100535.19
2023-03-27T00:21:54.803Z,100545.13
2023-03-27T00:26:00.433Z,100544.84
2023-03-27T00:30:06.303Z,100562.16
2023-03-27T00:34:07.731Z,100576.09
2023-03-27T00:38:09.717Z,100585.38
2023-03-27T00:42:14.558Z,100583.81
2023-03-27T00:46:16.147Z,100595.13
2023-03-27T00:50:22.365Z,100589.09
2023-03-27T00:54:29.942Z,100591.38
2023-03-27T00:58:42.701Z,100599.66
2023-03-27T01:02:49.214Z,100612.13
2023-03-27T01:06:53.775Z,100608.81
2023-03-27T01:11:16.600Z,100608.34
2023-03-27T01:15:39.857Z,100621.00
2023-03-27T01:20:07.191Z,100618.34
2023-03-27T01:24:47.807Z,100631.78
2023-03-27T01:29:04.301Z,100642.56
2023-03-27T01:33:44.252Z,100654.41
2023-03-27T01:38:04.446Z,100667.94
2023-03-27T01:42:27.302Z,100665.94
2023-03-27T01:46:52.696Z,100661.66
2023-03-27T01:50:59.360Z,100666.16
2023-03-27T01:55:04.958Z,100680.63
2023-03-27T01:59:11.212Z,100676.97
2023-03-27T02:03:26.850Z,100678.41
2023-03-27T02:07:34.615Z,100689.53
2023-03-27T02:11:41.605Z,100692.06
2023-03-27T02:15:44.769Z,100703.06
2023-03-27T02:19:52.996Z,100714.56
2023-03-27T02:23:56.537Z,100715.31
2023-03-27T02:28:27.903Z,100724.66
2023-03-27T02:32:46.030Z,100732.66
2023-03-27T02:37:05.638Z,100734.50
2023-03-27T02:41:19.637Z,100746.19
2023-03-27T02:45:51.227Z,100755.69
2023-03-27T02:49:58.310Z,100758.84
2023-03-27T02:54:05.461Z,100773.81
2023-03-27T02:58:12.417Z,100771.19
2023-03-27T03:02:20.223Z,100778.78
2023-03-27T03:06:29.734Z,100787.00
2023-03-27T03:10:31.408Z,100788.16
2023-03-27T03:14:39.959Z,100798.59
2023-03-27T03:18:41.308Z,100795.50
2023-03-27T03:22:42.808Z,100802.41
2023-03-27T03:26:45.408Z,100814.69
2023-03-27T03:30:48.838Z,100829.72
2023-03-27T03:34:50.391Z,100831.03
2023-03-27T03:38:51.663Z,100833.16
2023-03-27T03:42:53.189Z,100847.31
2023-03-27T03:46:54.561Z,100846.13
2023-03-27T03:50:56.009Z,100855.53
2023-03-27T03:54:57.568Z,100848.63
2023-03-27T03:58:58.960Z,100865.25
2023-03-27T04:03:03.009Z,100868.69
2023-03-27T04:07:05.522Z,100873.75
2023-03-27T04:11:06.919Z,100870.44
2023-03-27T04:15:09.221Z,100869.59
2023-03-27T04:19:10.643Z,100888.75
2023-03-27T04:23:12.016Z,100894.09
2023-03-27T04:27:13.490Z,100909.91
2023-03-27T04:31:15.312Z,100919.19
2023-03-27T04:35:17.634Z,100929.16
2023-03-27T04:39:19.998Z,100935.63
2023-03-27T04:43:25.871Z,100933.38
2023-03-27T04:47:28.840Z,100936.19
2023-03-27T04:51:32.103Z,100940.41
2023-03-27T04:55:37.835Z,100946.94
2023-03-27T04:59:39.194Z,100950.50
2023-03-27T05:03:40.618Z,100948.44
2023-03-27T05:07:48.469Z,100963.69
2023-03-27T05:11:50.538Z,100972.56
2023-03-27T05:15:52.446Z,100976.97
2023-03-27T05:19:53.850Z,100975.66
2023-03-27T05:23:55.267Z,100982.84
2023-03-27T05:27:57.027Z,100988.66
2023-03-27T05:32:01.130Z,100995.22
2023-03-27T05:36:03.236Z,101008.81
2023-03-27T05:40:05.984Z,101011.41
2023-03-27T05:44:07.499Z,101013.28
2023-03-27T05:48:09.217Z,101029.38
2023-03-27T05:52:10.636Z,101030.53
2023-03-27T05:56:13.163Z,101025.94
2023-03-27T06:00:16.200Z,101037.31
2023-03-27T06:04:18.076Z,101033.66
2023-03-27T06:08:19.438Z,101042.84
2023-03-27T06:12:20.807Z,101039.97
2023-03-27T06:16:22.410Z,101043.09
2023-03-27T06:20:24.834Z,101042.91
2023-03-27T06:24:26.316Z,101056.91
2023-03-27T06:28:28.425Z,101058.81
2023-03-27T06:32:30.028Z,101066.75
2023-03-27T06:36:32.448Z,101070.78
2023-03-27T06:40:35.368Z,101088.66
2023-03-27T06:44:36.796Z,101081.41
2023-03-27T06:48:39.443Z,101099.69
2023-03-27T06:52:41.080Z,101099.03
2023-03-27T06:56:44.272Z,101097.91
2023-03-27T07:00:45.936Z,101100.97
2023-03-27T07:04:57.853Z,101110.47
2023-03-27T07:09:03.426Z,101114.31
2023-03-27T07:18:19.904Z,101131.78
2023-03-27T07:22:26.750Z,101140.59
2023-03-27T07:26:29.203Z,101150.91
2023-03-27T07:30:45.646Z,101152.19
2023-03-27T07:34:47.879Z,101150.75
2023-03-27T07:38:49.417Z,101159.78
2023-03-27T07:42:52.511Z,101159.31
2023-03-27T07:47:05.766Z,101155.78
2023-03-27T07:51:13.807Z,101159.69
2023-03-27T07:55:32.015Z,101161.81
2023-03-27T08:07:51.292Z,101154.53
2023-03-27T08:11:57.840Z,101154.19
2023-03-27T08:16:12.089Z,101163.16
2023-03-27T08:20:19.223Z,101168.56
2023-03-27T08:24:20.836Z,101170.38
2023-03-27T08:33:13.550Z,101175.53
2023-03-27T08:37:15.353Z,101175.09
2023-03-27T08:41:40.805Z,101180.00
2023-03-27T08:45:55.329Z,101180.69
2023-03-27T08:50:02.081Z,101191.16
2023-03-27T08:54:09.331Z,101193.56
2023-03-27T08:58:19.208Z,101205.47
2023-03-27T09:02:45.102Z,101212.38
2023-03-27T09:07:01.634Z,101227.34
2023-03-27T09:11:09.284Z,101233.72
2023-03-27T09:15:16.761Z,101246.84
2023-03-27T09:19:23.535Z,101249.88
2023-03-27T09:23:31.552Z,101248.97
2023-03-27T09:27:51.833Z,101253.28
2023-03-27T09:31:58.313Z,101248.03
2023-03-27T09:36:00.773Z,101243.97
2023-03-27T09:48:53.050Z,101245.84
2023-03-27T09:53:21.081Z,101237.72
2023-03-27T10:02:40.271Z,101244.16
2023-03-27T10:06:56.279Z,101250.03
2023-03-27T10:10:59.147Z,101257.66
2023-03-27T10:15:01.475Z,101256.00
2023-03-27T10:19:03.842Z,101255.47
2023-03-27T10:23:22.718Z,101256.16
2023-03-27T10:27:29.591Z,101262.81
2023-03-27T10:31:33.593Z,101252.88
2023-03-27T10:35:39.303Z,101244.13
2023-03-27T10:39:43.283Z,101270.28
2023-03-27T10:43:47.224Z,101270.72
2023-03-27T10:47:54.844Z,101268.94
2023-03-27T10:52:21.649Z,101265.53
2023-03-27T10:56:27.542Z,101261.84
2023-03-27T11:00:48.709Z,101263.41
2023-03-27T11:05:02.316Z,101247.19
2023-03-27T11:09:16.009Z,101262.84
2023-03-27T11:13:36.400Z,101265.94
2023-03-27T11:17:53.598Z,101272.69
2023-03-27T11:21:59.976Z,101279.47
2023-03-27T11:26:06.040Z,101291.94
2023-03-27T11:30:33.867Z,101301.16
2023-03-27T11:34:48.102Z,101298.50
2023-03-27T11:39:02.335Z,101299.50
2023-03-27T11:43:03.998Z,101296.41
2023-03-27T11:47:33.038Z,101305.09
2023-03-27T11:51:43.002Z,101295.13
2023-03-27T11:56:02.676Z,101294.38
2023-03-27T12:00:16.662Z,101309.28
2023-03-27T12:04:49.529Z,101354.38
2023-03-27T12:09:28.380Z,101393.53
2023-03-27T12:13:41.875Z,101410.94
2023-03-27T12:18:19.868Z,101399.09
2023-03-27T12:22:43.982Z,101386.56
2023-03-27T12:26:58.641Z,101382.28
2023-03-27T12:31:31.880Z,101391.91
2023-03-27T12:35:41.317Z,101392.94
2023-03-27T12:39:51.921Z,101379.34
2023-03-27T12:43:59.550Z,101382.81
2023-03-27T12:48:14.808Z,101384.16
2023-03-27T12:52:25.663Z,101372.53
2023-03-27T12:56:32.820Z,101373.66
2023-03-27T13:00:34.341Z,101370.78
2023-03-27T13:04:49.708Z,101367.75
2023-03-27T13:09:02.172Z,101369.50
2023-03-27T13:13:28.342Z,101375.50
2023-03-27T13:17:44.198Z,101378.28
2023-03-27T13:22:08.015Z,101372.53
2023-03-27T13:26:21.563Z,101378.50
2023-03-27T13:30:43.592Z,101379.09
2023-03-27T13:35:18.928Z,101399.72
2023-03-27T13:39:22.272Z,101412.69
2023-03-27T13:43:28.968Z,101417.16
2023-03-27T13:47:30.329Z,101418.19
2023-03-27T13:51:57.465Z,101411.19
2023-03-27T13:56:26.518Z,101415.47
2023-03-27T14:00:35.546Z,101410.47
2023-03-27T14:04:59.220Z,101412.09
2023-03-27T14:09:15.938Z,101419.59
2023-03-27T14:13:54.329Z,101405.25
2023-03-27T14:17:58.547Z,101396.38
2023-03-27T14:22:04.786Z,101403.06
2023-03-27T14:26:18.598Z,101395.59
2023-03-27T14:30:28.438Z,101393.63
2023-03-27T14:34:47.249Z,101403.41
2023-03-27T14:39:00.370Z,101405.09
2023-03-27T14:43:05.806Z,101408.53
2023-03-27T14:47:13.273Z,101412.88
2023-03-27T14:51:19.432Z,101432.97
2023-03-27T14:55:23.978Z,101434.00
2023-03-27T14:59:38.678Z,101447.59
2023-03-27T15:03:40.289Z,101445.72
2023-03-27T15:07:43.821Z,101455.03
2023-03-27T15:11:54.428Z,101450.31
2023-03-27T15:15:59.653Z,101453.41
2023-03-27T15:20:10.196Z,101458.38
2023-03-27T15:24:23.458Z,101455.56
2023-03-27T15:28:38.138Z,101511.69
2023-03-27T15:32:50.551Z,101517.00
2023-03-27T15:37:00.123Z,101518.13
2023-03-27T15:41:27.513Z,101486.94
2023-03-27T15:45:39.874Z,101481.38
2023-03-27T15:49:44.193Z,101478.25
2023-03-27T15:53:49.921Z,101481.56
2023-03-27T15:57:51.353Z,101493.66
2023-03-27T16:02:03.688Z,101497.28
2023-03-27T16:06:05.569Z,101497.88
2023-03-27T16:10:07.590Z,101498.13
2023-03-27T16:14:29.424Z,101513.38
2023-03-27T16:18:36.578Z,101495.88
2023-03-27T16:22:39.205Z,101500.97
2023-03-27T16:26:40.656Z,101503.31
2023-03-27T16:30:42.419Z,101509.22
2023-03-27T16:34:44.288Z,101496.03
2023-03-27T16:38:46.511Z,101511.91
2023-03-27T16:42:48.878Z,101515.66
2023-03-27T16:46:50.471Z,101519.56
2023-03-27T16:50:51.844Z,101516.22
2023-03-27T16:54:53.881Z,101527.19
2023-03-27T16:58:55.290Z,101534.88
2023-03-27T17:02:56.771Z,101532.63
2023-03-27T17:06:58.236Z,101530.25
2023-03-27T17:11:06.557Z,101539.00
2023-03-27T17:15:29.531Z,101542.19
2023-03-27T17:19:31.085Z,101549.09
2023-03-27T17:23:32.654Z,101554.28
2023-03-27T17:27:37.412Z,101559.63
2023-03-27T17:31:38.882Z,101563.91
2023-03-27T17:35:41.629Z,101570.34
2023-03-27T17:39:43.057Z,101571.28
2023-03-27T17:43:45.576Z,101580.56
2023-03-27T17:47:47.389Z,101588.78
2023-03-27T17:51:48.900Z,101591.03
2023-03-27T17:55:52.727Z,101604.75
2023-03-27T18:00:01.643Z,101608.88
2023-03-27T18:04:03.637Z,101616.69
2023-03-27T18:08:08.477Z,101619.06
2023-03-27T18:12:10.001Z,101624.56
2023-03-27T18:16:37.990Z,101630.00
2023-03-27T18:20:42.300Z,101626.34
2023-03-27T18:25:05.004Z,101635.84
2023-03-27T18:29:07.309Z,101632.63
2023-03-27T18:33:12.644Z,101655.09
2023-03-27T18:37:14.308Z,101655.72
2023-03-27T18:41:19.214Z,101655.28
2023-03-27T18:45:24.868Z,101665.31
2023-03-27T18:49:28.191Z,101664.25
2023-03-27T18:53:30.273Z,101670.31
2023-03-27T18:57:31.846Z,101672.94
2023-03-27T19:01:34.921Z,101679.59
2023-03-27T19:05:36.571Z,101678.38
2023-03-27T19:09:41.320Z,101686.19
2023-03-27T19:13:43.320Z,101682.47
2023-03-27T19:17:44.672Z,101684.13
2023-03-27T19:21:46.547Z,101685.72
2023-03-27T19:25:49.131Z,101691.06
2023-03-27T19:29:50.686Z,101686.72
2023-03-27T19:33:52.130Z,101688.34
2023-03-27T19:37:54.744Z,101696.91
2023-03-27T19:41:56.306Z,101701.22
2023-03-27T19:46:14.302Z,101700.13
2023-03-27T19:50:17.469Z,101704.84
2023-03-27T19:54:19.135Z,101707.16
2023-03-27T19:58:20.783Z,101713.16
2023-03-27T20:02:22.152Z,101707.25
2023-03-27T20:06:26.292Z,101718.88
2023-03-27T20:10:27.929Z,101724.09
2023-03-27T20:14:32.370Z,101730.06
2023-03-27T20:18:34.361Z,101726.25
2023-03-27T20:22:50.220Z,101724.34
2023-03-27T20:26:58.415Z,101734.78
2023-03-27T20:31:04.463Z,101723.88
2023-03-27T20:35:16.480Z,101735.03
2023-03-27T20:39:27.262Z,101734.25
2023-03-27T20:43:30.889Z,101734.81
2023-03-27T20:47:39.096Z,101733.47
2023-03-27T20:51:40.511Z,101740.09
2023-03-27T20:55:53.394Z,101741.66
2023-03-27T21:00:01.243Z,101737.75
2023-03-27T21:04:02.639Z,101743.31
2023-03-27T21:08:04.168Z,101746.94
2023-03-27T21:12:06.156Z,101748.13
2023-03-27T21:16:08.113Z,101746.25
2023-03-27T21:20:10.313Z,101752.03
2023-03-27T21:24:11.795Z,101754.84
2023-03-27T21:28:13.162Z,101759.03
2023-03-27T21:32:14.592Z,101762.28
2023-03-27T21:36:16.082Z,101775.06
2023-03-27T21:40:17.525Z,101770.72
2023-03-27T21:44:18.888Z,101763.34
2023-03-27T21:48:20.291Z,101773.44
2023-03-27T21:52:22.209Z,101772.16
2023-03-27T21:56:23.523Z,101779.44
2023-03-27T22:00:26.564Z,101779.47
2023-03-27T22:04:28.142Z,101782.44
2023-03-27T22:08:29.609Z,101788.22
2023-03-27T22:12:31.510Z,101789.84
2023-03-27T22:16:35.455Z,101791.00
2023-03-27T22:20:36.906Z,101799.34
2023-03-27T22:24:38.466Z,101803.59
2023-03-27T22:28:42.346Z,101809.38
2023-03-27T22:32:43.874Z,101803.50
2023-03-27T22:36:45.255Z,101810.50
2023-03-27T22:40:46.657Z,101819.00
2023-03-27T22:44:48.008Z,101819.47
2023-03-27T22:48:58.968Z,101819.00
2023-03-27T22:53:00.517Z,101829.25
2023-03-27T22:57:02.042Z,101828.94
2023-03-27T23:01:05.261Z,101831.19
2023-03-27T23:05:06.848Z,101846.09
2023-03-27T23:09:09.747Z,101845.81
2023-03-27T23:13:11.242Z,101843.56
2023-03-27T23:17:12.656Z,101855.28
2023-03-27T23:21:16.607Z,101858.84
2023-03-27T23:25:17.955Z,101854.72
2023-03-27T23:29:19.547Z,101863.94
2023-03-27T23:33:22.685Z,101861.47
2023-03-27T23:37:27.179Z,101865.44
2023-03-27T23:41:29.333Z,101875.97
2023-03-27T23:45:30.695Z,101869.75
2023-03-27T23:49:32.069Z,101872.88
2023-03-27T23:53:34.356Z,101877.13
2023-03-27T23:57:35.950Z,101882.66
